Time;durP1;ratioP1;P1;durP2;ratioP2;P2;SDS_P1;SDS_P2;PMS_P1;PMS_P2;Temp;Humidity;BMP_temperature;BMP_pressure;BME280_temperature;BME280_humidity;BME280_pressure;Samples;Min_cycle;Max_cycle;Signal;HPM_P1;HPM_P2
2022/08/18 04:30:10;;;;;;;15.10;11.07;;;;;;;20.90;86.21;99958.47;5595314;31;234398;-89
2022/08/18 04:33:13;;;;;;;14.43;10.98;;;;;;;20.90;86.21;99958.47;5603101;31;33618;-89
2022/08/18 04:36:16;;;;;;;12.95;10.52;;;;;;;20.44;87.96;99958.47;5602973;31;33613;-89
2022/08/18 04:39:23;;;;;;;14.55;10.77;;;;;;;20.52;87.52;99963.94;5603787;31;33599;-89
2022/08/18 04:42:25;;;;;;;15.57;11.12;;;;;;;20.62;87.41;99965.75;5604566;31;33691;-90
2022/08/18 04:45:28;;;;;;;23.70;10.95;;;;;;;20.73;87.21;99965.53;5617507;31;33516;-89
2022/08/18 04:48:38;;;;;;;17.73;10.60;;;;;;;20.85;86.67;99964.34;5615486;31;35171;-89
2022/08/18 04:53:43;;;;;;;14.50;11.30;;;;;;;20.96;86.26;99959.69;5612955;31;33812;-89
2022/08/18 04:55:30;;;;;;;18.48;11.40;;;;;;;21.00;86.45;99958.41;5603763;31;32385;-89
2022/08/18 04:58:34;;;;;;;18.15;10.75;;;;;;;21.12;85.75;99962.53;5603514;31;33735;-89
2022/08/18 05:01:44;;;;;;;14.00;10.98;;;;;;;21.26;85.30;99955.75;5602854;31;32762;-89
2022/08/18 05:04:47;;;;;;;14.82;11.18;;;;;;;21.45;84.52;99963.78;5605966;31;33855;-89
2022/08/18 05:07:50;;;;;;;17.08;11.15;;;;;;;21.55;83.77;99964.56;5607374;31;34584;-90
2022/08/18 05:10:56;;;;;;;13.73;10.85;;;;;;;21.66;83.23;99967.00;5608136;31;34422;-89
2022/08/18 05:14:07;;;;;;;14.15;10.60;;;;;;;21.81;82.39;99953.78;5609228;31;34277;-89
2022/08/18 05:17:12;;;;;;;13.27;10.20;;;;;;;21.98;81.92;99955.72;5604964;31;34211;-92
2022/08/18 05:20:15;;;;;;;20.27;11.18;;;;;;;22.15;81.15;99954.78;5604736;31;35208;-93
2022/08/18 05:23:20;;;;;;;16.33;11.35;;;;;;;22.33;80.45;99954.66;5604442;31;34217;-90
2022/08/18 05:26:25;;;;;;;15.88;11.15;;;;;;;22.49;79.70;99953.88;5604332;31;33600;-90
2022/08/18 05:29:35;;;;;;;16.55;11.35;;;;;;;22.69;78.51;99945.53;5597802;31;34513;-89
2022/08/18 05:32:45;;;;;;;14.00;10.80;;;;;;;23.00;77.71;99954.84;5590663;31;33917;-90
2022/08/18 05:36:02;;;;;;;14.20;10.95;;;;;;;23.18;76.26;99951.12;5593062;31;33957;-90
2022/08/18 05:39:16;;;;;;;12.63;10.50;;;;;;;23.37;75.29;99956.22;5621048;26;33650;-88
2022/08/18 05:42:21;;;;;;;17.70;10.75;;;;;;;23.74;73.64;99961.22;5562941;32;33069;-88
2022/08/18 05:45:26;;;;;;;20.20;11.30;;;;;;;23.95;73.35;99963.37;5572265;32;33929;-88
2022/08/18 05:48:28;;;;;;;15.13;11.10;;;;;;;24.40;70.88;99965.56;5571058;32;33791;-89
2022/08/18 05:51:41;;;;;;;12.98;10.75;;;;;;;24.68;69.67;99971.34;5549816;32;33320;-89
2022/08/18 05:58:28;;;;;;;12.43;9.98;;;;;;;25.38;66.72;99963.19;5550644;32;34571;-89
2022/08/18 06:01:43;;;;;;;11.60;10.40;;;;;;;25.57;65.95;99961.03;5554832;32;33944;-88
2022/08/18 06:04:55;;;;;;;19.80;10.18;;;;;;;25.63;65.17;99960.28;5537227;32;33168;-88
2022/08/18 06:08:05;;;;;;;12.35;10.60;;;;;;;25.76;64.69;99956.94;5551174;32;35242;-91
2022/08/18 06:11:08;;;;;;;18.73;10.63;;;;;;;25.95;63.80;99958.22;5550809;32;33803;-89
2022/08/18 06:14:24;;;;;;;12.27;10.40;;;;;;;26.50;61.85;99968.75;5536254;32;33299;-88
2022/08/18 06:17:56;;;;;;;14.52;10.90;;;;;;;26.97;60.56;99971.19;5553956;32;33855;-89
2022/08/18 06:21:13;;;;;;;18.83;11.32;;;;;;;27.30;58.63;99969.81;5527598;32;33884;-89
2022/08/18 06:24:27;;;;;;;13.35;10.18;;;;;;;27.67;56.17;99964.22;5556077;32;33594;-89
2022/08/18 06:27:45;;;;;;;15.10;11.05;;;;;;;27.74;56.79;99970.56;5560347;32;34547;-89
2022/08/18 06:31:17;;;;;;;14.15;10.98;;;;;;;27.70;56.73;99974.69;5561564;32;34184;-89
2022/08/18 06:34:23;;;;;;;13.23;10.68;;;;;;;27.51;57.42;99971.59;5540150;32;33631;-89
2022/08/18 06:41:31;;;;;;;16.15;10.68;;;;;;;27.25;58.13;99975.00;5549047;32;33937;-89
2022/08/18 06:44:52;;;;;;;15.20;10.80;;;;;;;27.51;57.21;99971.59;5536125;32;32303;-89
2022/08/18 06:48:10;;;;;;;13.95;10.98;;;;;;;27.48;56.42;99969.31;5550270;32;33930;-89
2022/08/18 06:51:20;;;;;;;15.85;11.57;;;;;;;27.73;55.37;99971.59;5550681;32;33753;-89
2022/08/18 06:54:26;;;;;;;11.63;10.40;;;;;;;28.07;53.77;99969.06;5550160;32;33774;-88
2022/08/18 06:57:36;;;;;;;16.02;10.23;;;;;;;29.18;51.43;99958.06;5550214;32;33737;-89
2022/08/18 07:00:48;;;;;;;;;;;;;;;30.12;49.32;99970.81;5551415;32;33974;-89
2022/08/18 07:03:55;;;;;;;18.62;10.85;;;;;;;29.83;49.44;99959.28;5556231;32;34927;-89
2022/08/18 07:06:58;;;;;;;14.85;10.45;;;;;;;29.44;50.21;99950.91;5562643;32;35237;-88
2022/08/18 07:10:04;;;;;;;14.63;11.23;;;;;;;29.15;51.05;99953.00;5541197;32;32225;-88
2022/08/18 07:13:21;;;;;;;12.93;10.38;;;;;;;29.21;51.30;99943.97;5550042;32;33958;-88
2022/08/18 07:16:33;;;;;;;13.02;10.60;;;;;;;29.48;50.60;99941.28;5549927;32;33694;-89
2022/08/18 07:19:59;;;;;;;11.27;9.50;;;;;;;30.22;47.84;99946.53;5549647;32;33635;-89
2022/08/18 07:23:03;;;;;;;13.15;9.38;;;;;;;30.25;47.16;99937.91;5535789;32;34262;-88
2022/08/18 07:26:12;;;;;;;10.70;8.68;;;;;;;29.95;47.65;99937.56;5553873;32;33979;-90
2022/08/18 07:29:17;;;;;;;15.30;9.27;;;;;;;29.62;48.94;99935.78;5562965;32;34098;-89
2022/08/18 07:32:21;;;;;;;10.90;9.07;;;;;;;29.91;47.83;99934.44;5563948;32;34642;-90
2022/08/18 07:35:37;;;;;;;13.90;9.07;;;;;;;29.83;47.18;99946.44;5554341;32;33757;-89
2022/08/18 07:39:14;;;;;;;12.37;9.80;;;;;;;29.63;47.91;99946.50;5582697;26;33926;-89
2022/08/18 07:42:31;;;;;;;12.60;9.00;;;;;;;29.80;48.48;99935.09;5581805;31;34615;-89
2022/08/18 07:46:11;;;;;;;13.20;9.85;;;;;;;29.96;47.44;99936.53;5596031;31;34189;-89
2022/08/18 07:49:19;;;;;;;11.65;9.25;;;;;;;30.11;46.93;99939.00;5602851;31;33716;-89
2022/08/18 07:52:35;;;;;;;9.60;8.63;;;;;;;30.42;45.96;99929.19;5600251;31;33848;-89
2022/08/18 07:55:57;;;;;;;10.00;8.90;;;;;;;30.70;44.88;99941.69;5504486;32;33352;-90
2022/08/18 07:59:26;;;;;;;11.30;8.85;;;;;;;31.03;44.66;99935.13;5518749;26;32266;-89
2022/08/18 08:02:43;;;;;;;12.32;8.70;;;;;;;31.24;42.98;99945.91;5493579;32;33815;-89
2022/08/18 08:06:07;;;;;;;14.10;8.43;;;;;;;31.44;41.75;99945.78;5547196;26;32890;-89
2022/08/18 08:09:24;;;;;;;13.25;9.13;;;;;;;32.24;40.33;99960.50;5516973;32;31088;-89
2022/08/18 08:12:50;;;;;;;10.43;8.80;;;;;;;32.90;39.54;99962.59;5518701;32;34063;-89
2022/08/18 08:16:14;;;;;;;9.80;8.45;;;;;;;33.65;37.74;99962.22;5539174;32;33877;-89
2022/08/18 08:19:47;;;;;;;11.75;8.57;;;;;;;32.97;38.29;99968.00;5553691;26;33511;-90
2022/08/18 08:23:22;;;;;;;13.07;8.43;;;;;;;33.80;37.13;99969.97;5529938;32;34459;-89
2022/08/18 08:26:41;;;;;;;12.82;8.45;;;;;;;33.78;36.21;99974.88;5529704;32;33496;-90
2022/08/18 08:29:49;;;;;;;13.43;8.70;;;;;;;34.38;35.22;99967.34;5515942;32;33866;-90
2022/08/18 08:33:12;;;;;;;14.52;8.95;;;;;;;34.73;35.03;99972.97;5515913;32;32620;-90
2022/08/18 08:36:29;;;;;;;9.88;8.75;;;;;;;34.70;34.81;99979.81;5516451;32;32984;-90
2022/08/18 08:40:01;;;;;;;10.82;8.30;;;;;;;35.30;33.99;99969.25;5515222;32;32753;-90
2022/08/18 08:43:10;;;;;;;9.10;8.13;;;;;;;34.90;34.71;99968.31;5515763;32;33584;-90
2022/08/18 08:46:22;;;;;;;11.50;8.55;;;;;;;35.70;32.54;99964.63;5529883;32;34148;-89
2022/08/18 08:49:36;;;;;;;9.25;7.93;;;;;;;35.76;33.55;99962.78;5529602;32;34737;-92
2022/08/18 08:52:49;;;;;;;9.35;8.23;;;;;;;36.20;32.63;99959.22;5513655;32;33744;-90
2022/08/18 08:55:56;;;;;;;10.25;7.60;;;;;;;35.13;32.75;99955.50;5520226;32;34221;-89
2022/08/18 08:59:08;;;;;;;11.88;8.38;;;;;;;35.13;33.07;99951.91;5526563;32;33731;-90
2022/08/18 09:02:28;;;;;;;8.52;7.53;;;;;;;36.38;31.50;99949.78;5539643;32;34089;-90
2022/08/18 09:05:58;;;;;;;12.93;8.30;;;;;;;36.33;31.54;99948.84;5545887;32;35069;-90
2022/08/18 09:09:19;;;;;;;9.20;7.72;;;;;;;36.88;31.13;99946.97;5544832;32;34472;-90
2022/08/18 09:12:46;;;;;;;8.65;7.75;;;;;;;36.62;30.24;99945.88;5542594;32;34491;-89
2022/08/18 09:16:07;;;;;;;8.25;7.40;;;;;;;36.61;28.72;99946.97;5533908;32;33923;-89
2022/08/18 09:19:46;;;;;;;11.02;8.05;;;;;;;37.00;29.22;99932.13;5536470;32;35186;-89
2022/08/18 09:26:38;;;;;;;9.30;7.80;;;;;;;37.34;29.40;99932.69;5321021;30;20123;-90
2022/08/18 09:29:51;;;;;;;11.10;7.82;;;;;;;37.78;28.62;99921.59;5532136;32;34589;-90
2022/08/18 09:33:44;;;;;;;9.27;7.65;;;;;;;38.04;28.18;99905.91;5535190;32;34415;-89
2022/08/18 09:37:08;;;;;;;10.38;7.18;;;;;;;38.59;27.25;99916.59;5582166;26;34063;-89
2022/08/18 09:44:13;;;;;;;8.48;7.20;;;;;;;39.58;24.99;99905.44;5520578;32;33732;-89
2022/08/18 09:47:36;;;;;;;9.13;6.97;;;;;;;38.08;27.08;99911.75;5527407;32;33816;-89
2022/08/18 09:50:56;;;;;;;8.10;7.37;;;;;;;38.05;26.81;99910.34;5531873;32;33970;-90
2022/08/18 09:54:12;;;;;;;16.15;7.50;;;;;;;37.75;27.25;99901.66;5515434;32;32464;-89
2022/08/18 09:57:25;;;;;;;8.60;7.30;;;;;;;37.64;27.61;99879.78;5531798;32;33754;-89
2022/08/18 10:00:30;;;;;;;7.40;6.70;;;;;;;37.71;27.00;99883.94;5530317;32;34270;-89
2022/08/18 10:03:35;;;;;;;8.00;6.78;;;;;;;38.60;25.03;99875.88;5511828;32;34007;-89
2022/08/18 10:06:38;;;;;;;7.65;6.85;;;;;;;39.77;24.41;99855.69;5498525;32;33204;-90
2022/08/18 10:10:06;;;;;;;9.38;6.45;;;;;;;41.58;22.61;99849.72;5498955;32;32694;-89
2022/08/18 10:13:37;;;;;;;7.30;5.93;;;;;;;42.39;20.88;99845.25;5504693;32;33044;-90
2022/08/18 10:17:01;;;;;;;8.52;6.57;;;;;;;41.39;20.77;99858.88;5513620;32;33827;-89
2022/08/18 10:20:46;;;;;;;8.80;6.28;;;;;;;40.13;22.80;99855.50;5516461;32;33909;-89
2022/08/18 10:24:18;;;;;;;8.77;7.00;;;;;;;39.51;23.97;99852.19;5503376;32;32497;-89
2022/08/18 10:27:43;;;;;;;6.80;6.20;;;;;;;39.99;23.65;99846.97;5531743;32;33887;-89
2022/08/18 10:31:00;;;;;;;8.65;6.05;;;;;;;38.86;24.55;99859.25;5543599;32;34918;-90
2022/08/18 10:34:12;;;;;;;6.97;6.30;;;;;;;37.82;25.50;99848.00;5521869;32;34211;-89
2022/08/18 10:37:31;;;;;;;6.90;6.20;;;;;;;38.89;24.37;99856.75;5518845;32;32706;-89
2022/08/18 10:40:35;;;;;;;6.72;6.20;;;;;;;39.61;23.84;99844.66;5517283;32;33259;-89
2022/08/18 10:43:45;;;;;;;10.77;6.22;;;;;;;41.52;21.75;99857.28;5531339;32;34138;-89
2022/08/18 10:46:59;;;;;;;7.53;6.35;;;;;;;42.82;20.11;99858.19;5536869;32;34506;-89
2022/08/18 10:50:08;;;;;;;11.52;6.05;;;;;;;43.48;18.69;99849.72;5539464;32;34071;-89
2022/08/18 10:53:37;;;;;;;8.93;5.90;;;;;;;42.92;19.54;99843.25;5528754;32;33535;-90
2022/08/18 10:56:51;;;;;;;10.77;5.85;;;;;;;42.88;19.85;99825.47;5542765;32;33826;-90
2022/08/18 11:00:12;;;;;;;9.93;5.82;;;;;;;40.74;21.30;99829.47;5507717;32;32288;-90
2022/08/18 11:03:30;;;;;;;7.10;5.60;;;;;;;38.67;23.83;99823.78;5523256;32;33994;-90
2022/08/18 11:07:07;;;;;;;10.77;5.90;;;;;;;38.05;24.33;99818.19;5505811;32;32924;-93
2022/08/18 11:10:38;;;;;;;6.35;5.75;;;;;;;38.28;24.04;99833.44;5521684;32;33794;-91
2022/08/18 11:14:13;;;;;;;7.15;5.90;;;;;;;38.21;24.29;99821.81;5498419;32;32837;-89
2022/08/18 11:17:38;;;;;;;6.28;5.72;;;;;;;37.91;24.50;99820.63;5497730;32;32646;-89
2022/08/18 11:20:44;;;;;;;9.75;6.10;;;;;;;38.34;23.75;99814.88;5511133;32;33839;-89
2022/08/18 11:24:06;;;;;;;5.87;5.28;;;;;;;38.36;23.85;99813.50;5511464;32;34309;-90
2022/08/18 11:27:23;;;;;;;4.78;4.15;;;;;;;37.71;24.80;99812.00;5510454;32;34264;-89
2022/08/18 11:30:33;;;;;;;6.20;4.07;;;;;;;37.58;21.99;99802.28;5497664;32;34202;-89
2022/08/18 11:33:40;;;;;;;8.30;4.55;;;;;;;37.79;21.50;99801.53;5497709;32;33235;-89
2022/08/18 11:36:58;;;;;;;4.68;4.28;;;;;;;37.54;21.81;99795.59;5511780;32;32395;-90
2022/08/18 11:40:04;;;;;;;8.68;4.50;;;;;;;37.44;21.76;99785.34;5512638;32;33781;-90
2022/08/18 11:43:23;;;;;;;5.45;4.95;;;;;;;38.11;21.88;99779.16;5504217;32;34394;-89
2022/08/18 11:46:34;;;;;;;11.50;5.65;;;;;;;37.93;22.44;99780.50;5503163;32;33737;-88
2022/08/18 11:49:55;;;;;;;9.23;4.75;;;;;;;37.04;22.97;99778.47;5506374;32;32265;-89
2022/08/18 11:53:14;;;;;;;8.50;5.00;;;;;;;37.51;23.12;99776.78;5523307;32;33947;-89
2022/08/18 11:56:19;;;;;;;4.70;4.32;;;;;;;37.43;23.32;99774.53;5517301;32;33809;-89
2022/08/18 11:59:32;;;;;;;6.75;4.50;;;;;;;36.64;22.70;99759.47;5510589;32;33648;-89
2022/08/18 12:03:14;;;;;;;5.15;4.65;;;;;;;37.27;22.63;99759.81;5508868;32;32626;-89
2022/08/18 12:06:26;;;;;;;5.20;4.70;;;;;;;37.25;21.52;99760.09;5519003;32;34571;-89
2022/08/18 12:09:34;;;;;;;5.55;4.75;;;;;;;36.67;22.60;99755.34;5512147;32;32468;-89
2022/08/18 12:12:58;;;;;;;5.55;4.87;;;;;;;36.66;23.09;99759.22;5514343;32;32675;-89
2022/08/18 12:16:29;;;;;;;5.55;4.97;;;;;;;36.90;23.03;99754.09;5517069;32;33288;-90
2022/08/18 12:19:32;;;;;;;5.18;4.78;;;;;;;36.88;23.40;99748.00;5512812;32;34283;-89
2022/08/18 12:22:39;;;;;;;6.50;4.97;;;;;;;37.06;23.31;99737.59;5510305;32;35220;-89
2022/08/18 12:25:42;;;;;;;6.50;4.95;;;;;;;37.24;23.04;99732.72;5525582;32;34768;-89
2022/08/18 12:28:45;;;;;;;6.15;5.40;;;;;;;36.83;23.95;99725.88;5530662;32;35161;-89
2022/08/18 12:31:51;;;;;;;5.50;5.05;;;;;;;37.22;24.22;99721.94;5531027;32;34150;-89
2022/08/18 12:34:55;;;;;;;5.82;5.10;;;;;;;36.99;23.96;99706.63;5539985;32;33820;-89
2022/08/18 12:37:57;;;;;;;7.62;5.07;;;;;;;37.06;23.88;99702.47;5542649;32;33846;-89
2022/08/18 12:41:15;;;;;;;9.25;5.70;;;;;;;36.70;24.55;99699.56;5539891;32;34990;-89
2022/08/18 12:44:25;;;;;;;7.15;5.10;;;;;;;36.56;23.77;99699.19;5531959;32;33998;-89
2022/08/18 12:47:29;;;;;;;6.87;5.18;;;;;;;36.04;23.87;99703.47;5531768;32;34410;-89
2022/08/18 12:50:35;;;;;;;8.05;5.50;;;;;;;35.96;24.50;99713.91;5531449;32;33913;-89
2022/08/18 12:53:56;;;;;;;7.20;5.18;;;;;;;36.04;24.87;99711.75;5530385;32;33832;-88
2022/08/18 12:57:05;;;;;;;5.97;5.22;;;;;;;35.80;25.02;99723.94;5529692;32;33806;-87
2022/08/18 13:00:09;;;;;;;6.72;5.47;;;;;;;36.11;24.60;99724.28;5529915;32;33587;-88
2022/08/18 13:03:18;;;;;;;8.57;5.28;;;;;;;35.81;25.29;99719.25;5530144;32;34003;-87
2022/08/18 13:06:24;;;;;;;6.03;5.32;;;;;;;35.91;25.50;99735.91;5530295;32;34658;-87
2022/08/18 13:09:31;;;;;;;8.35;4.80;;;;;;;36.08;25.33;99723.91;5530034;32;34663;-88
2022/08/18 13:12:49;;;;;;;8.38;5.40;;;;;;;36.09;25.12;99720.06;5502222;32;32341;-88
2022/08/18 13:15:54;;;;;;;13.10;5.55;;;;;;;36.29;25.44;99730.47;5503044;32;32711;-88
2022/08/18 13:19:07;;;;;;;6.93;5.35;;;;;;;36.34;25.10;99724.97;5512965;32;34361;-88
2022/08/18 13:22:12;;;;;;;7.03;5.15;;;;;;;35.67;25.29;99744.50;5510662;32;35285;-87
2022/08/18 13:25:16;;;;;;;5.65;4.87;;;;;;;36.34;25.12;99743.50;5503382;32;32263;-87
2022/08/18 13:28:41;;;;;;;5.78;4.82;;;;;;;36.30;24.38;99748.72;5522229;32;34573;-88
2022/08/18 13:31:59;;;;;;;5.85;4.85;;;;;;;36.28;24.18;99748.13;5510942;32;32734;-87
2022/08/18 13:35:03;;;;;;;5.40;4.90;;;;;;;36.39;24.23;99751.78;5522360;32;33583;-87
2022/08/18 13:38:18;;;;;;;6.47;5.07;;;;;;;36.11;24.18;99751.03;5502541;32;33339;-87
2022/08/18 13:41:30;;;;;;;6.05;5.43;;;;;;;35.68;24.96;99740.66;5516266;32;34199;-88
2022/08/18 13:44:34;;;;;;;7.80;5.10;;;;;;;36.12;24.93;99733.38;5503265;32;32455;-90
2022/08/18 13:47:38;;;;;;;6.55;5.68;;;;;;;35.92;24.76;99731.22;5500855;32;32493;-89
2022/08/18 13:50:44;;;;;;;6.82;4.80;;;;;;;35.69;24.92;99723.00;5500292;32;32531;-89
2022/08/18 13:53:46;;;;;;;5.65;5.10;;;;;;;35.63;24.90;99718.53;5510908;32;32230;-89
2022/08/18 13:57:11;;;;;;;5.65;5.15;;;;;;;35.70;25.20;99723.84;5527932;32;34946;-90
2022/08/18 14:00:18;;;;;;;6.40;5.20;;;;;;;35.81;25.05;99727.53;5522124;32;35415;-92
2022/08/18 14:03:34;;;;;;;6.03;4.87;;;;;;;36.07;24.67;99730.53;5503847;32;34296;-89
2022/08/18 14:06:50;;;;;;;7.75;5.47;;;;;;;36.08;24.53;99740.47;5504303;32;32436;-88
2022/08/18 14:09:59;;;;;;;11.85;6.28;;;;;;;35.96;24.76;99729.59;5517141;32;35528;-88
2022/08/18 14:13:07;;;;;;;8.65;5.45;;;;;;;35.99;24.81;99732.69;5512138;32;34920;-89
2022/08/18 14:16:26;;;;;;;10.15;5.40;;;;;;;35.92;25.05;99734.81;5499117;32;32606;-89
2022/08/18 14:29:52;;;;;;;11.32;5.40;;;;;;;36.10;25.08;99738.28;5519469;32;34889;-88
2022/08/18 14:32:57;;;;;;;9.63;5.37;;;;;;;36.08;24.91;99734.94;5526339;32;33906;-89
2022/08/18 14:36:00;;;;;;;7.97;5.15;;;;;;;36.14;25.02;99747.72;5510858;32;33144;-89
2022/08/18 14:39:11;;;;;;;7.05;5.30;;;;;;;35.98;25.16;99739.28;5543262;26;35147;-93
2022/08/18 14:42:17;;;;;;;11.43;5.30;;;;;;;36.01;25.12;99744.28;5516461;32;35060;-94
2022/08/18 14:45:21;;;;;;;9.05;5.55;;;;;;;36.11;25.20;99737.22;5511997;32;32423;-90
2022/08/18 14:48:36;;;;;;;7.30;5.53;;;;;;;36.10;25.67;99743.81;5512541;32;33055;-89
2022/08/18 14:51:41;;;;;;;8.15;5.70;;;;;;;36.05;25.14;99741.84;5513123;32;34265;-90
2022/08/18 14:54:45;;;;;;;10.30;6.10;;;;;;;35.76;24.89;99742.13;5512601;32;34215;-90
2022/08/18 14:57:52;;;;;;;8.85;5.97;;;;;;;35.92;25.01;99732.06;5512806;32;34377;-90
2022/08/18 15:01:07;;;;;;;11.43;6.25;;;;;;;35.98;24.90;99736.53;5512474;32;32909;-89
2022/08/18 15:04:14;;;;;;;9.52;6.10;;;;;;;35.97;24.79;99734.87;5512287;32;32700;-90
2022/08/18 15:07:21;;;;;;;8.00;6.10;;;;;;;35.71;25.18;99740.16;5512158;32;33107;-90
2022/08/18 15:10:25;;;;;;;9.05;6.57;;;;;;;35.78;25.26;99730.84;5513400;32;33880;-89
2022/08/18 15:13:30;;;;;;;7.70;6.18;;;;;;;35.71;25.13;99723.59;5513294;32;34098;-90
2022/08/18 15:16:33;;;;;;;8.15;5.72;;;;;;;35.57;25.19;99722.28;5513900;32;34189;-91
